Time;durP1;ratioP1;P1;durP2;ratioP2;P2;SDS_P1;SDS_P2;PMS_P1;PMS_P2;Temp;Humidity;BMP_temperature;BMP_pressure;BME280_temperature;BME280_humidity;BME280_pressure;Samples;Min_cycle;Max_cycle;Signal;HPM_P1;HPM_P2
2021/10/01 00:02:52;;;;;;;4.30;1.20;;;11.20;99.90;;;;;;12488020;28;20139;-39
2021/10/01 00:08:54;;;;;;;3.75;1.50;;;11.20;99.90;;;;;;12467558;28;20057;-39
2021/10/01 00:14:56;;;;;;;3.47;1.08;;;11.20;99.90;;;;;;12466186;28;20108;-40
2021/10/01 00:20:58;;;;;;;5.07;0.75;;;11.20;99.90;;;;;;12471514;28;20521;-39
2021/10/01 00:27:01;;;;;;;5.55;1.23;;;11.20;99.90;;;;;;12513496;28;20410;-39
2021/10/01 00:33:02;;;;;;;5.15;1.08;;;11.20;99.90;;;;;;12491196;28;20049;-40
2021/10/01 00:39:05;;;;;;;8.05;1.15;;;11.20;99.90;;;;;;12462513;28;20057;-39
2021/10/01 00:45:08;;;;;;;4.10;0.90;;;11.20;99.90;;;;;;12466829;28;20084;-35
2021/10/01 00:51:10;;;;;;;3.50;0.95;;;11.20;99.90;;;;;;12470607;28;20064;-39
2021/10/01 00:57:12;;;;;;;5.38;0.88;;;11.20;99.90;;;;;;12513380;28;20049;-35
2021/10/01 01:03:14;;;;;;;5.65;0.95;;;11.20;99.90;;;;;;12487222;28;20057;-35
2021/10/01 01:09:52;;;;;;;5.43;1.00;;;11.10;99.90;;;;;;12466335;28;20053;-39
2021/10/01 01:16:00;;;;;;;3.72;0.95;;;11.10;99.90;;;;;;12463501;28;20128;-39
2021/10/01 01:22:19;;;;;;;4.70;0.90;;;11.00;99.90;;;;;;12474818;28;20102;-35
2021/10/01 01:28:59;;;;;;;3.70;1.02;;;11.10;99.90;;;;;;12509871;28;20103;-41
2021/10/01 01:35:12;;;;;;;5.03;0.77;;;11.10;99.90;;;;;;12469711;28;20099;-35
2021/10/01 01:41:16;;;;;;;2.05;0.70;;;11.10;99.90;;;;;;12472270;28;20045;-39
2021/10/01 01:47:18;;;;;;;5.47;1.10;;;11.10;99.90;;;;;;12508919;28;20103;-40
2021/10/01 01:53:20;;;;;;;2.33;0.82;;;11.10;99.90;;;;;;12469600;28;20118;-35
2021/10/01 01:59:24;;;;;;;4.90;0.70;;;11.10;99.90;;;;;;12444092;28;20467;-38
2021/10/01 02:05:27;;;;;;;4.53;1.25;;;11.00;99.90;;;;;;12501083;28;20087;-39
2021/10/01 02:11:30;;;;;;;5.97;0.90;;;11.00;99.90;;;;;;12497282;28;20099;-35
2021/10/01 02:17:35;;;;;;;4.78;1.25;;;11.00;99.90;;;;;;12461794;28;20124;-35
2021/10/01 02:23:37;;;;;;;3.67;0.80;;;11.00;99.90;;;;;;12486680;28;20118;-35
2021/10/01 02:29:48;;;;;;;4.68;0.80;;;11.00;99.90;;;;;;12511243;28;20056;-35
2021/10/01 02:35:52;;;;;;;3.20;0.80;;;11.10;99.90;;;;;;12516251;28;20053;-39
2021/10/01 02:41:54;;;;;;;2.70;0.70;;;11.00;99.90;;;;;;12500965;28;20465;-35
2021/10/01 02:47:56;;;;;;;6.70;1.10;;;11.00;99.90;;;;;;12472019;28;20057;-35
2021/10/01 02:54:09;;;;;;;2.35;0.85;;;11.00;99.90;;;;;;12497505;28;20056;-39
2021/10/01 03:00:11;;;;;;;3.45;0.80;;;11.00;99.90;;;;;;12516536;28;20064;-39
2021/10/01 03:06:17;;;;;;;6.03;0.90;;;11.00;99.90;;;;;;12467999;28;20050;-40
2021/10/01 03:12:21;;;;;;;7.50;1.00;;;11.00;99.90;;;;;;12461553;28;20099;-39
2021/10/01 03:18:23;;;;;;;2.97;0.80;;;11.00;99.90;;;;;;12466964;28;20049;-38
2021/10/01 03:24:26;;;;;;;3.65;0.80;;;10.90;99.90;;;;;;12503490;28;20049;-35
2021/10/01 03:30:28;;;;;;;3.33;0.68;;;10.90;99.90;;;;;;12511257;28;20556;-35
2021/10/01 03:36:33;;;;;;;5.18;0.80;;;10.80;99.90;;;;;;12468659;28;20099;-39
2021/10/01 03:42:36;;;;;;;4.15;0.70;;;10.80;99.90;;;;;;12487230;28;20107;-35
2021/10/01 03:48:38;;;;;;;2.83;0.80;;;10.80;99.90;;;;;;12515351;28;20057;-35
2021/10/01 03:54:42;;;;;;;4.63;0.90;;;10.80;99.90;;;;;;12478357;28;20403;-35
2021/10/01 04:00:45;;;;;;;1.48;0.65;;;10.70;99.90;;;;;;12466657;28;20152;-35
2021/10/01 04:06:47;;;;;;;6.72;0.90;;;10.70;99.90;;;;;;12513034;28;20057;-39
2021/10/01 04:12:49;;;;;;;3.95;1.00;;;10.70;99.90;;;;;;12491891;28;20082;-34
2021/10/01 04:18:51;;;;;;;3.78;0.80;;;10.70;99.90;;;;;;12466651;28;20061;-36
2021/10/01 04:24:53;;;;;;;6.20;0.93;;;10.70;99.90;;;;;;12503520;28;20045;-37
2021/10/01 04:30:54;;;;;;;6.07;0.80;;;10.70;99.90;;;;;;12506059;28;20135;-39
2021/10/01 04:36:56;;;;;;;3.80;0.70;;;10.80;99.90;;;;;;12464395;28;20185;-39
2021/10/01 04:42:58;;;;;;;6.93;1.10;;;10.80;99.90;;;;;;12487971;28;20049;-39
2021/10/01 04:48:59;;;;;;;4.45;0.80;;;10.80;99.90;;;;;;12509186;28;20068;-35
2021/10/01 04:55:02;;;;;;;3.72;0.95;;;10.70;99.90;;;;;;12469437;28;20072;-35
2021/10/01 05:01:04;;;;;;;7.28;1.30;;;10.70;99.90;;;;;;12462988;28;20045;-39
2021/10/01 05:07:06;;;;;;;4.63;0.77;;;10.70;99.90;;;;;;12463835;28;20056;-39
2021/10/01 05:13:07;;;;;;;5.28;0.70;;;10.80;99.90;;;;;;12463853;28;20928;-35
2021/10/01 05:19:09;;;;;;;4.50;0.95;;;10.90;99.90;;;;;;12462307;28;20053;-39
2021/10/01 05:25:11;;;;;;;4.90;1.10;;;10.90;99.90;;;;;;12458276;28;20463;-40
2021/10/01 05:31:13;;;;;;;3.45;0.80;;;10.90;99.90;;;;;;12471073;28;20555;-39
2021/10/01 05:37:15;;;;;;;6.05;1.05;;;10.90;99.90;;;;;;12509443;28;20049;-35
2021/10/01 05:43:16;;;;;;;3.20;0.98;;;10.90;99.90;;;;;;12487143;28;20463;-39
2021/10/01 05:49:21;;;;;;;3.92;0.80;;;11.00;99.90;;;;;;12464545;28;20076;-39
2021/10/01 05:55:23;;;;;;;;;;;11.00;99.90;;;;;;12464373;28;20487;-35
2021/10/01 06:01:25;;;;;;;3.17;0.80;;;11.10;99.90;;;;;;12470714;28;19975;-38
2021/10/01 06:07:26;;;;;;;5.18;0.93;;;11.00;99.90;;;;;;12520073;28;20057;-35
2021/10/01 06:13:28;;;;;;;3.08;1.10;;;11.00;99.90;;;;;;12494407;28;20045;-35
2021/10/01 06:19:34;;;;;;;3.53;0.88;;;11.10;99.90;;;;;;12476937;28;20045;-40
2021/10/01 06:25:36;;;;;;;3.35;0.68;;;11.20;99.90;;;;;;12517986;28;20772;-39
2021/10/01 06:31:38;;;;;;;5.18;0.80;;;11.20;99.90;;;;;;12505299;28;20049;-35
2021/10/01 06:37:40;;;;;;;3.78;0.80;;;11.20;99.90;;;;;;12473081;28;20076;-35
2021/10/01 06:43:44;;;;;;;3.15;0.98;;;11.30;99.90;;;;;;12473172;28;20467;-35
2021/10/01 07:21:02;;;;;;;6.10;0.88;;;11.50;99.90;;;;;;12512943;28;20452;-35
2021/10/01 08:24:38;;;;;;;7.90;1.15;;;13.40;99.90;;;;;;12512555;28;19925;-41
2021/10/01 08:30:40;;;;;;;2.40;0.73;;;13.50;99.90;;;;;;12504310;28;20053;-41
2021/10/01 08:36:43;;;;;;;2.95;0.70;;;13.90;99.90;;;;;;12466828;28;20513;-34
2021/10/01 08:42:46;;;;;;;2.47;0.70;;;14.10;99.90;;;;;;12489647;28;20056;-35
2021/10/01 08:48:49;;;;;;;3.35;0.63;;;14.40;99.90;;;;;;12512714;28;20064;-38
2021/10/01 08:54:51;;;;;;;4.95;0.90;;;14.60;99.90;;;;;;12472142;28;20487;-39
2021/10/01 09:00:56;;;;;;;3.17;0.80;;;14.70;99.90;;;;;;12470878;28;20048;-35
2021/10/01 09:06:59;;;;;;;2.63;0.70;;;14.80;99.90;;;;;;12510461;28;20132;-39
2021/10/01 09:13:00;;;;;;;2.97;0.70;;;14.90;99.90;;;;;;12488625;28;20827;-35
2021/10/01 09:19:05;;;;;;;2.83;1.00;;;15.10;99.90;;;;;;12466892;28;20056;-35
2021/10/01 09:25:22;;;;;;;2.95;0.75;;;15.10;99.90;;;;;;12503122;28;20053;-39
2021/10/01 09:31:42;;;;;;;3.20;0.70;;;15.30;99.90;;;;;;12512907;28;20447;-40
2021/10/01 09:37:44;;;;;;;6.45;0.63;;;15.40;99.90;;;;;;12513662;28;20479;-35
2021/10/01 09:44:18;;;;;;;2.50;0.77;;;15.60;99.90;;;;;;12520809;28;20049;-39
2021/10/01 09:50:27;;;;;;;4.97;0.68;;;15.70;99.90;;;;;;12522290;28;20049;-35
2021/10/01 09:56:30;;;;;;;3.22;0.80;;;15.90;99.90;;;;;;12518342;28;20053;-35
2021/10/01 10:02:37;;;;;;;2.77;0.70;;;16.00;99.90;;;;;;12520029;28;20568;-35
2021/10/01 10:08:41;;;;;;;5.80;0.85;;;15.60;99.90;;;;;;12522109;28;20482;-35
2021/10/01 10:14:48;;;;;;;4.53;1.23;;;15.40;99.90;;;;;;12518204;28;20049;-35
2021/10/01 10:20:49;;;;;;;4.15;0.82;;;15.80;99.90;;;;;;12519839;28;20049;-35
2021/10/01 10:26:51;;;;;;;2.92;0.77;;;16.50;99.90;;;;;;12514969;28;20167;-35
2021/10/01 10:32:53;;;;;;;3.22;0.70;;;16.90;99.90;;;;;;12511912;28;20063;-35
2021/10/01 10:39:33;;;;;;;4.28;0.70;;;17.20;99.90;;;;;;12519023;28;20445;-39
2021/10/01 10:45:36;;;;;;;4.97;0.75;;;17.60;99.90;;;;;;12515898;28;20770;-35
2021/10/01 10:52:09;;;;;;;4.60;0.80;;;17.90;99.90;;;;;;12518016;28;20557;-40
2021/10/01 11:04:28;;;;;;;;;;;18.50;99.90;;;;;;12515443;28;20110;-36
2021/10/01 11:10:46;;;;;;;4.00;0.90;;;18.60;99.90;;;;;;12519198;28;20016;-36
2021/10/01 11:17:11;;;;;;;3.92;0.85;;;18.50;99.90;;;;;;12518432;28;20064;-35
2021/10/01 11:23:15;;;;;;;2.70;0.80;;;18.60;99.90;;;;;;12514205;28;20147;-40
2021/10/01 11:29:20;;;;;;;;;;;18.60;99.90;;;;;;12517035;28;20052;-35
2021/10/01 11:35:22;;;;;;;2.53;0.52;;;18.70;99.90;;;;;;12516666;28;19928;-39
2021/10/01 11:41:25;;;;;;;3.90;0.60;;;19.10;99.90;;;;;;12519815;28;20091;-44
2021/10/01 11:47:26;;;;;;;3.73;0.67;;;19.00;99.90;;;;;;12516491;28;20056;-40
2021/10/01 11:53:34;;;;;;;5.18;0.75;;;19.00;99.90;;;;;;12516650;28;20082;-36
2021/10/01 12:00:04;;;;;;;3.00;0.60;;;19.10;99.90;;;;;;12513132;28;20080;-35
2021/10/01 12:06:06;;;;;;;2.13;0.60;;;19.40;99.90;;;;;;12518435;28;20061;-35
2021/10/01 12:12:08;;;;;;;3.42;0.80;;;19.30;99.90;;;;;;12505398;28;20044;-37
2021/10/01 12:18:34;;;;;;;3.30;0.63;;;19.60;99.90;;;;;;12512783;28;20173;-40
2021/10/01 12:24:54;;;;;;;2.08;0.68;;;19.60;99.90;;;;;;12513721;28;20147;-35
2021/10/01 12:31:03;;;;;;;6.93;0.85;;;19.60;99.90;;;;;;12514883;28;20056;-41
2021/10/01 12:37:08;;;;;;;3.17;0.70;;;19.00;99.90;;;;;;12515163;28;20052;-39
2021/10/01 12:43:10;;;;;;;3.45;0.80;;;18.60;99.90;;;;;;12513489;28;20555;-36
2021/10/01 12:49:21;;;;;;;2.42;0.85;;;18.50;99.90;;;;;;12513736;28;20091;-40
2021/10/01 12:55:23;;;;;;;2.45;0.60;;;18.80;99.90;;;;;;12512528;28;20053;-35
2021/10/01 13:01:25;;;;;;;4.10;0.88;;;18.70;99.90;;;;;;12515452;28;20064;-36
2021/10/01 13:07:42;;;;;;;2.97;0.70;;;18.80;99.90;;;;;;12510564;28;20045;-39
2021/10/01 13:13:44;;;;;;;2.58;0.50;;;18.70;99.90;;;;;;12512040;28;20079;-36
2021/10/01 13:20:00;;;;;;;3.00;0.60;;;19.00;99.90;;;;;;12510009;28;20053;-39
2021/10/01 13:26:27;;;;;;;3.17;0.70;;;18.90;99.90;;;;;;12509549;28;20053;-36
2021/10/01 13:32:29;;;;;;;2.83;0.80;;;19.10;99.90;;;;;;12509511;28;20044;-36
2021/10/01 13:38:36;;;;;;;1.17;0.60;;;19.00;99.90;;;;;;12508654;28;20092;-39
2021/10/01 13:44:38;;;;;;;1.17;0.47;;;18.70;99.90;;;;;;12511409;28;20098;-35
2021/10/01 13:50:42;;;;;;;4.25;0.80;;;18.50;99.90;;;;;;12509486;28;20059;-36
2021/10/01 13:56:43;;;;;;;2.35;0.57;;;18.30;99.90;;;;;;12511139;28;20501;-41
2021/10/01 14:02:45;;;;;;;2.08;0.65;;;18.20;99.90;;;;;;12508020;28;20098;-40
2021/10/01 14:08:48;;;;;;;3.83;0.57;;;18.20;99.90;;;;;;12512014;28;20056;-37
2021/10/01 14:15:10;;;;;;;1.73;0.57;;;18.30;99.90;;;;;;12511057;28;20049;-41
2021/10/01 14:21:12;;;;;;;1.15;0.35;;;18.20;99.90;;;;;;12511024;28;20041;-40
2021/10/01 14:27:14;;;;;;;1.70;0.70;;;18.10;99.90;;;;;;12518913;28;20057;-40
2021/10/01 14:33:16;;;;;;;2.92;0.70;;;18.00;99.90;;;;;;12519269;28;20040;-37
2021/10/01 14:39:18;;;;;;;3.65;0.60;;;18.00;99.90;;;;;;12520931;28;20110;-36
2021/10/01 14:45:20;;;;;;;6.40;0.75;;;17.90;99.90;;;;;;12518934;28;20090;-41
2021/10/01 14:51:22;;;;;;;3.35;0.60;;;17.70;99.90;;;;;;12517472;28;20522;-39
2021/10/01 14:57:24;;;;;;;3.33;0.68;;;17.70;99.90;;;;;;12522854;28;20053;-40
2021/10/01 15:03:26;;;;;;;3.97;0.80;;;17.60;99.90;;;;;;12518445;28;20090;-36
2021/10/01 15:09:27;;;;;;;3.03;1.00;;;17.50;99.90;;;;;;12514951;28;20653;-39
2021/10/01 15:15:29;;;;;;;4.18;1.15;;;17.40;99.90;;;;;;12519933;28;20053;-35
2021/10/01 15:21:31;;;;;;;2.97;0.57;;;17.40;99.90;;;;;;12514259;28;20523;-35
2021/10/01 15:27:33;;;;;;;1.83;0.60;;;17.30;99.90;;;;;;12519366;28;20592;-40
2021/10/01 15:33:35;;;;;;;4.10;0.80;;;17.20;99.90;;;;;;12512953;28;20088;-40
2021/10/01 15:39:37;;;;;;;4.65;0.70;;;17.00;99.90;;;;;;12501145;28;20233;-41
2021/10/01 15:45:41;;;;;;;3.05;0.70;;;16.90;99.90;;;;;;12519853;28;20061;-35
2021/10/01 15:51:42;;;;;;;;;;;16.90;99.90;;;;;;12518096;28;20616;-39
2021/10/01 15:57:45;;;;;;;1.52;0.52;;;16.70;99.90;;;;;;12513334;28;19932;-36
2021/10/01 16:03:48;;;;;;;3.33;0.70;;;16.60;99.90;;;;;;12517424;28;20045;-41
2021/10/01 16:09:51;;;;;;;4.30;1.17;;;16.60;99.90;;;;;;12513966;28;20049;-35
2021/10/01 16:15:53;;;;;;;3.05;0.80;;;16.50;99.90;;;;;;12514213;28;20045;-36
2021/10/01 16:21:55;;;;;;;6.22;0.85;;;16.50;99.90;;;;;;12513822;28;20048;-39
2021/10/01 16:28:02;;;;;;;2.63;0.80;;;16.40;99.90;;;;;;12509402;28;20748;-36
2021/10/01 16:34:05;;;;;;;2.75;0.77;;;16.30;99.90;;;;;;12509429;28;20049;-40
2021/10/01 16:40:08;;;;;;;2.38;1.00;;;16.30;99.90;;;;;;12509349;28;20739;-39
2021/10/01 16:46:10;;;;;;;4.13;0.70;;;16.20;99.90;;;;;;12512429;28;20106;-35
2021/10/01 16:52:12;;;;;;;2.33;0.80;;;16.10;99.90;;;;;;12514345;28;20391;-40
2021/10/01 16:58:14;;;;;;;2.97;0.77;;;16.00;99.90;;;;;;12510788;28;20478;-39
2021/10/01 17:04:16;;;;;;;1.83;0.80;;;15.90;99.90;;;;;;12509432;28;20094;-40
2021/10/01 17:10:18;;;;;;;3.20;0.73;;;15.80;99.90;;;;;;12507259;28;20572;-35
2021/10/01 17:16:20;;;;;;;1.98;0.70;;;15.80;99.90;;;;;;12509544;28;20045;-39
2021/10/01 17:22:23;;;;;;;3.03;0.95;;;15.70;99.90;;;;;;12508945;28;20106;-39
2021/10/01 17:28:25;;;;;;;4.33;1.20;;;15.60;99.90;;;;;;12505759;28;20546;-35
2021/10/01 17:34:28;;;;;;;2.17;0.70;;;15.60;99.90;;;;;;12505324;28;20049;-36
2021/10/01 17:40:31;;;;;;;3.22;1.00;;;15.50;99.90;;;;;;12506976;28;20106;-40
2021/10/01 17:46:33;;;;;;;3.25;0.90;;;15.40;99.90;;;;;;12509358;28;20174;-35
2021/10/01 17:52:35;;;;;;;2.15;0.80;;;15.30;99.90;;;;;;12505331;28;20045;-41
2021/10/01 17:58:36;;;;;;;5.85;1.10;;;15.30;99.90;;;;;;12510750;28;20057;-39
2021/10/01 18:04:38;;;;;;;5.60;1.20;;;15.20;99.90;;;;;;12520365;28;20106;-35
2021/10/01 18:10:41;;;;;;;6.50;1.00;;;15.10;99.90;;;;;;12519798;28;20455;-35
2021/10/01 18:16:43;;;;;;;5.10;1.17;;;15.00;99.90;;;;;;12517951;28;20453;-35
2021/10/01 18:22:45;;;;;;;3.08;1.20;;;15.10;99.90;;;;;;12518834;28;20048;-39
2021/10/01 18:28:47;;;;;;;4.03;1.15;;;15.10;99.90;;;;;;12515615;28;20057;-35
2021/10/01 18:34:49;;;;;;;2.58;1.05;;;15.00;99.90;;;;;;12519376;28;20155;-35
2021/10/01 18:40:55;;;;;;;5.07;1.45;;;14.90;99.90;;;;;;12514843;28;20048;-35
2021/10/01 18:46:57;;;;;;;2.10;1.05;;;15.00;99.90;;;;;;12517330;28;20057;-39
2021/10/01 18:52:59;;;;;;;5.32;1.27;;;15.00;99.90;;;;;;12515666;28;20061;-39
2021/10/01 18:59:01;;;;;;;4.20;1.20;;;15.00;99.90;;;;;;12514515;28;20049;-38
2021/10/01 19:05:08;;;;;;;5.43;1.05;;;14.90;99.90;;;;;;12517392;28;20041;-36
2021/10/01 19:11:13;;;;;;;3.60;0.80;;;14.90;99.90;;;;;;12512858;28;20076;-36
2021/10/01 19:17:15;;;;;;;4.03;1.30;;;14.90;99.90;;;;;;12515264;28;20469;-38
2021/10/01 19:35:42;;;;;;;4.95;1.20;;;14.90;99.90;;;;;;12512657;28;20049;-35
2021/10/01 19:41:44;;;;;;;3.00;1.23;;;14.80;99.90;;;;;;12516724;28;20044;-41
2021/10/01 19:47:47;;;;;;;3.47;0.95;;;14.80;99.90;;;;;;12513453;28;20053;-35
2021/10/01 19:53:49;;;;;;;5.55;1.25;;;14.80;99.90;;;;;;12514139;28;20083;-39
2021/10/01 19:59:53;;;;;;;3.38;0.90;;;14.70;99.90;;;;;;12511213;28;20049;-39
2021/10/01 20:05:55;;;;;;;3.28;1.25;;;14.60;99.90;;;;;;12512509;28;20763;-39
2021/10/01 20:11:57;;;;;;;7.90;1.10;;;14.60;99.90;;;;;;12513532;28;20052;-40
2021/10/01 20:18:01;;;;;;;2.08;1.00;;;14.60;99.90;;;;;;12511904;28;20041;-39
2021/10/01 20:24:15;;;;;;;2.33;1.00;;;14.60;99.90;;;;;;12512029;28;20107;-38
2021/10/01 20:49:24;;;;;;;4.00;1.15;;;14.50;99.90;;;;;;12512288;28;20654;-42
2021/10/01 20:55:26;;;;;;;2.70;0.90;;;14.50;99.90;;;;;;12509056;28;20103;-35
2021/10/01 21:01:41;;;;;;;2.65;0.90;;;14.50;99.90;;;;;;12510547;28;20919;-41
2021/10/01 21:45:38;;;;;;;4.22;1.20;;;14.70;99.90;;;;;;12522746;28;20053;-35
2021/10/01 21:51:45;;;;;;;2.80;1.02;;;14.70;99.90;;;;;;12522700;28;20061;-35
2021/10/01 21:57:49;;;;;;;3.83;1.00;;;14.80;99.90;;;;;;12526103;28;20501;-38
2021/10/01 22:22:21;;;;;;;3.63;1.08;;;14.80;99.90;;;;;;12522963;28;20064;-35
2021/10/01 22:28:23;;;;;;;2.88;0.90;;;14.70;99.90;;;;;;12524769;28;20053;-39
2021/10/01 22:34:24;;;;;;;2.90;1.20;;;14.50;99.90;;;;;;12523570;28;20048;-35
2021/10/01 22:40:33;;;;;;;4.53;1.15;;;14.50;99.90;;;;;;12524122;28;20190;-35
2021/10/01 22:46:35;;;;;;;5.28;1.20;;;14.50;99.90;;;;;;12518922;28;20110;-35
2021/10/01 22:52:38;;;;;;;3.58;1.33;;;14.40;99.90;;;;;;12515164;28;20103;-40
2021/10/01 22:58:46;;;;;;;4.75;1.40;;;14.40;99.90;;;;;;12515532;28;20118;-40
2021/10/01 23:04:48;;;;;;;5.93;1.40;;;14.30;99.90;;;;;;12514766;28;20090;-35
2021/10/01 23:42:30;;;;;;;4.25;1.40;;;14.40;99.90;;;;;;12517476;28;20139;-38
